アテネ の空港の天気 - METARとTAF

アテネ国際空港 ( LGAV / ATH ) - ギリシャ アテネ
飛行場実況気象(Metar)
観測時間06/25 11:20 EEST (06/25 08:20 UTC)
風向・風速北東 7m/s
視程10km以上
天気現象
少しの雲 雲底高度 610m
気温31℃
湿度38%
気圧1014hPa
METARLGAV 250820Z 04013KT 9999 FEW020 31/15 Q1014 NOSIG
過去の天気等 Google飛行場航空写真 Wunderground天気予報

過去48時間のMETAR

飛行場予報(TAF)
データがありません